If you wish to contribute or participate in the discussions about articles you are invited to join SKYbrary as a registered user

 Actions

Freeport/Grand Bahama International

From SKYbrary Wiki

MYGF
Airport
ICAO: MYGF – IATA: FPO
Summary
Name Freeport/Grand Bahama International
Region South America and Caribbean
Territory The Bahamas BS.gif
Location Freeport, Grand Bahama
Serving Grand Bahama
Elevation 2.438 m <br />8 ft2.438 m <br />
Coordinates 26° 33' 19.01" N, 78° 41' 53.99" W
Runways
Designator Length Width Surface ROPS
6/24 3359 m11,020.341 ft <br /> 46 m150.919 ft <br /> ASP yes/yes


METAR
Observation MYGF 181400Z 05011KT 9999 BKN030 27/18 A3004
Station Freeport, Grand Bahama
Date/Time 18 October 2021 14:00:00
Wind direction 50°
Wind speed 11 kts
Lowest cloud amount broken clouds
Temperature 27°C
Dew point 18°C
Humidity 57%
QNH hPa
Weather condition n/a

WX
Tag(s) Tropical Revolving Storm

Grand Bahama International Airport is a privately owned international airport in Freeport, Bahamas.

Climatology

Tropical Monsoon climate (Köppen climate classification Am)

Maps

Terrain

Loading map...

Airport Layout

Loading map...


Accidents & Serious Incidents at or in vicinity of MYGF

None on SKYbrary